Yuma MCAS/Yuma International Airport
KNYL : now visible

Airfield :











YOU CAN JOIN US ON...

 
LOGIN :

Register | Disclaimer

   EN    FR    IT 

 









Legend :    VFR   Marginal VFR   IFR   Intensive IFR   Very Intensive IFR
Visi :
Ceiling :
>= 8 km
>= 3000ft
5 to 8 km
1000 to 3000 ft
1500m to 5 km
500 to 1000 ft
800 to 1500m
200 to 500 ft
< 800m
< 200 ft
Symbols :   Thunderstorms  Fog  Heavy snow  Heavy precipitations  Wind > 20 kt






- Airport Elevation : 213 ft
- IATA code : YUM


KNYL - Yuma MCAS/Yuma International

CURRENT METAR :
  • 250157Z AUTO 20005KT 10SM CLR 38/18 A2984 RMK AO2 SLP100 T03780183 $

EXPIRED METARs :
  • 250057Z AUTO 00000KT 10SM CLR 39/18 A2983 RMK AO2 SLP096 T03890178 $
  • 242357Z AUTO 00000KT 10SM CLR 39/18 A2983 RMK AO2 SLP096 T03940183 10406 20361 56016 $

TAF TAF KNYL
Valid from the 24 at 21:00 until the 25 at 21:00 UTC


2421/2521 VRB05KT 9999 SKC QNH2983INS
FM250030 26008KT 9999 SKC QNH2985INS
FM250530 VRB05KT 9999 SKC QNH2981INS T39/2423Z T28/2514Z
KZLA FIR / North America



MET'MAP, your aeronautical weather chart ! - Copyright ORBIFLY December 2007 - Disclaimer

ORBIFLY MET'MAP TEAM :

Programming & Development : Alexandra Zaïnal
Original concept : Baudouin d'Aumeries
Technical & hardware support : Manuel Goepfert
Assistance : Marc-Olivier Méhu




SOURCES & CREDITS :

   NOAA       Earth
Advisory